Maskell, Nebraska
Current Conditions -  °F | °C
As of 7:35 PM on Tuesday 25 Nov 2014 (Local Time) from KYKN Reporting Station
Few Clouds Few Clouds  
Wind Chill: 31°   Ceiling: Unl
Heat Index: 39°   Visibility: 10mi
Dew Point: 30°   Wind: 15mph
Humidity: 70%   Direction: 180°S
Pressure: 29.83"   Gusts: NA
Location:  42.69°N, 96.98°W
Report Text: KYKN 260135Z AUTO 18013KT 10SM FEW034 04/M01 A2983 RMK AO1
Loading
Personal Weather Stations






























Interactive Weather Map New forecast layout! Learn more

10-Day Weather Forecast

Advertisements
Track Severe Weather on mobile